Time;durP1;ratioP1;P1;durP2;ratioP2;P2;SDS_P1;SDS_P2;PMS_P1;PMS_P2;Temp;Humidity;BMP_temperature;BMP_pressure;BME280_temperature;BME280_humidity;BME280_pressure;Samples;Min_cycle;Max_cycle;Signal;HPM_P1;HPM_P2
2022/02/26 00:00:19;;;;;;;29.27;15.72;;;;;;;;;;365262;145;856771;-54
2022/02/26 00:01:21;;;;;;;28.19;14.31;;;;;;;;;;364833;146;856197;-55
2022/02/26 00:02:24;;;;;;;24.08;14.29;;;;;;;;;;364903;146;857153;-54
2022/02/26 00:03:25;;;;;;;27.71;13.74;;;;;;;;;;365000;146;856623;-55
2022/02/26 00:04:27;;;;;;;31.21;15.06;;;;;;;;;;363593;146;856629;-54
2022/02/26 00:05:28;;;;;;;29.21;14.06;;;;;;;;;;365481;146;862351;-54
2022/02/26 00:06:30;;;;;;;24.13;14.01;;;;;;;;;;364867;146;858102;-54
2022/02/26 00:07:31;;;;;;;25.26;14.13;;;;;;;;;;351005;151;857664;-54
2022/02/26 00:08:33;;;;;;;24.44;13.24;;;;;;;;;;364412;146;863868;-55
2022/02/26 00:09:35;;;;;;;25.46;14.26;;;;;;;;;;364796;146;863764;-55
2022/02/26 00:10:36;;;;;;;21.57;12.61;;;;;;;;;;364930;146;864220;-54
2022/02/26 00:11:38;;;;;;;25.34;13.13;;;;;;;;;;364355;146;856430;-54
2022/02/26 00:12:39;;;;;;;22.76;12.65;;;;;;;;;;355908;149;856712;-53
2022/02/26 00:13:41;;;;;;;25.89;9.68;;;;;;;;;;353585;150;864502;-54
2022/02/26 00:14:42;;;;;;;21.95;11.62;;;;;;;;;;364689;146;857219;-54
2022/02/26 00:15:44;;;;;;;20.89;11.85;;;;;;;;;;364439;145;865198;-54
2022/02/26 00:16:46;;;;;;;18.91;9.53;;;;;;;;;;356113;150;864746;-54
2022/02/26 00:17:47;;;;;;;21.29;11.41;;;;;;;;;;364639;146;864298;-54
2022/02/26 00:18:49;;;;;;;20.00;11.50;;;;;;;;;;364620;145;856904;-54
2022/02/26 00:19:50;;;;;;;22.38;11.40;;;;;;;;;;356695;149;863763;-54
2022/02/26 00:20:52;;;;;;;18.10;10.45;;;;;;;;;;364689;146;856847;-54
2022/02/26 00:21:54;;;;;;;18.09;10.49;;;;;;;;;;364647;145;863796;-54
2022/02/26 00:22:56;;;;;;;21.15;10.00;;;;;;;;;;364717;145;863814;-54
2022/02/26 00:23:57;;;;;;;17.46;10.01;;;;;;;;;;364828;146;856102;-54
2022/02/26 00:24:59;;;;;;;16.71;9.76;;;;;;;;;;365356;146;858649;-54
2022/02/26 00:26:00;;;;;;;15.58;9.71;;;;;;;;;;364360;145;863909;-54
2022/02/26 00:27:02;;;;;;;16.06;9.05;;;;;;;;;;355996;149;856269;-54
2022/02/26 00:28:04;;;;;;;15.93;9.86;;;;;;;;;;364526;145;856543;-54
2022/02/26 00:29:05;;;;;;;17.61;9.79;;;;;;;;;;364467;146;856804;-55
2022/02/26 00:30:07;;;;;;;14.37;8.28;;;;;;;;;;364368;146;858418;-54
2022/02/26 00:31:09;;;;;;;17.58;9.75;;;;;;;;;;364632;146;856745;-54
2022/02/26 00:32:10;;;;;;;18.86;9.64;;;;;;;;;;365967;145;856262;-54
2022/02/26 00:33:13;;;;;;;16.56;9.37;;;;;;;;;;364862;145;856875;-54
2022/02/26 00:34:14;;;;;;;17.89;9.07;;;;;;;;;;364617;146;856265;-54
2022/02/26 00:35:16;;;;;;;12.75;6.72;;;;;;;;;;361730;148;856723;-54
2022/02/26 00:36:18;;;;;;;15.68;8.13;;;;;;;;;;361450;148;856032;-54
2022/02/26 00:37:20;;;;;;;14.48;9.06;;;;;;;;;;362050;147;856235;-54
2022/02/26 00:38:21;;;;;;;13.70;7.36;;;;;;;;;;362037;147;863867;-54
2022/02/26 00:39:23;;;;;;;14.91;8.51;;;;;;;;;;361344;148;864290;-54
2022/02/26 00:40:25;;;;;;;13.15;8.59;;;;;;;;;;361878;147;863891;-53
2022/02/26 00:41:27;;;;;;;13.69;7.71;;;;;;;;;;361421;148;856957;-54
2022/02/26 00:42:28;;;;;;;13.99;8.21;;;;;;;;;;361611;148;857295;-54
2022/02/26 00:43:30;;;;;;;14.98;8.61;;;;;;;;;;360979;147;864257;-55
2022/02/26 00:44:32;;;;;;;13.91;7.95;;;;;;;;;;361605;147;857128;-54
2022/02/26 00:45:33;;;;;;;11.66;6.71;;;;;;;;;;362163;148;859467;-55
2022/02/26 00:46:35;;;;;;;14.42;7.37;;;;;;;;;;360685;147;863999;-55
2022/02/26 00:47:36;;;;;;;11.99;6.18;;;;;;;;;;360956;147;864400;-55
2022/02/26 00:49:58;;;;;;;13.72;6.89;;;;;;;;;;361471;148;857326;-55
2022/02/26 00:51:00;;;;;;;12.88;7.46;;;;;;;;;;361101;147;856819;-55
2022/02/26 00:52:01;;;;;;;12.33;7.09;;;;;;;;;;362031;147;864108;-55
2022/02/26 00:53:03;;;;;;;12.08;7.56;;;;;;;;;;362134;147;856259;-55
2022/02/26 00:54:04;;;;;;;12.54;7.21;;;;;;;;;;360866;147;863909;-55
2022/02/26 00:55:06;;;;;;;13.80;8.01;;;;;;;;;;361788;147;858671;-55
2022/02/26 00:56:08;;;;;;;11.85;6.72;;;;;;;;;;361977;147;863999;-55
2022/02/26 00:57:10;;;;;;;12.96;7.37;;;;;;;;;;361438;148;856549;-56
2022/02/26 00:58:11;;;;;;;12.56;7.05;;;;;;;;;;361247;147;856207;-55
2022/02/26 00:59:13;;;;;;;13.58;6.50;;;;;;;;;;361713;148;856515;-55
2022/02/26 01:00:15;;;;;;;11.11;7.19;;;;;;;;;;361773;148;864461;-55
2022/02/26 01:01:17;;;;;;;14.52;7.75;;;;;;;;;;361400;147;856024;-55
2022/02/26 01:02:19;;;;;;;9.69;6.66;;;;;;;;;;361386;147;864407;-55
2022/02/26 01:03:21;;;;;;;12.17;7.25;;;;;;;;;;362055;148;858295;-55
2022/02/26 01:04:22;;;;;;;12.29;6.38;;;;;;;;;;360083;148;857808;-53
2022/02/26 01:05:24;;;;;;;11.60;7.29;;;;;;;;;;361211;147;863980;-54
2022/02/26 01:06:25;;;;;;;11.03;6.19;;;;;;;;;;361723;147;856372;-55
2022/02/26 01:07:27;;;;;;;11.46;7.28;;;;;;;;;;361531;147;859760;-55
2022/02/26 01:08:28;;;;;;;12.93;7.06;;;;;;;;;;361271;147;864578;-54
2022/02/26 01:09:30;;;;;;;12.10;6.70;;;;;;;;;;360081;147;859450;-54
2022/02/26 01:10:32;;;;;;;12.79;7.47;;;;;;;;;;361086;148;858982;-54
2022/02/26 01:11:33;;;;;;;9.89;6.31;;;;;;;;;;361300;148;864657;-55
2022/02/26 01:12:35;;;;;;;14.99;7.60;;;;;;;;;;361611;147;863924;-54
2022/02/26 01:13:36;;;;;;;10.80;6.61;;;;;;;;;;360965;148;856716;-54
2022/02/26 01:14:38;;;;;;;8.89;5.14;;;;;;;;;;361755;148;856341;-55
2022/02/26 01:15:39;;;;;;;11.08;5.48;;;;;;;;;;361125;147;863843;-55
2022/02/26 01:16:41;;;;;;;12.71;7.06;;;;;;;;;;361320;148;864225;-54
2022/02/26 01:17:42;;;;;;;11.97;7.00;;;;;;;;;;360920;148;858069;-55
2022/02/26 01:18:44;;;;;;;12.64;7.11;;;;;;;;;;361126;147;857692;-54
2022/02/26 01:19:46;;;;;;;7.95;5.06;;;;;;;;;;361213;147;856843;-54
2022/02/26 01:20:47;;;;;;;13.39;7.39;;;;;;;;;;361582;147;856213;-55
2022/02/26 01:21:49;;;;;;;10.30;6.78;;;;;;;;;;361360;147;856148;-55
2022/02/26 01:22:51;;;;;;;12.05;7.24;;;;;;;;;;360665;147;856331;-55
2022/02/26 01:23:52;;;;;;;14.76;7.11;;;;;;;;;;361840;148;864473;-55
2022/02/26 01:24:54;;;;;;;11.79;6.95;;;;;;;;;;361330;148;858016;-55
2022/02/26 01:25:55;;;;;;;8.69;5.63;;;;;;;;;;361138;148;857249;-54
2022/02/26 01:26:57;;;;;;;10.27;6.91;;;;;;;;;;361658;148;856338;-55
2022/02/26 01:27:58;;;;;;;12.36;7.11;;;;;;;;;;361074;148;857044;-54
2022/02/26 01:29:00;;;;;;;15.01;7.08;;;;;;;;;;361176;147;856539;-54
2022/02/26 01:30:02;;;;;;;10.56;6.30;;;;;;;;;;361403;148;856895;-54
2022/02/26 01:31:03;;;;;;;11.69;7.12;;;;;;;;;;361164;148;864482;-55
2022/02/26 01:32:05;;;;;;;10.49;6.84;;;;;;;;;;360747;148;863824;-55
2022/02/26 01:33:06;;;;;;;13.64;7.52;;;;;;;;;;360917;147;858853;-55
2022/02/26 01:34:08;;;;;;;10.99;7.11;;;;;;;;;;361729;148;856183;-55
2022/02/26 01:35:09;;;;;;;12.81;6.79;;;;;;;;;;363029;146;856754;-55
2022/02/26 01:36:11;;;;;;;11.61;6.94;;;;;;;;;;364149;146;863829;-55
2022/02/26 01:37:13;;;;;;;13.30;7.32;;;;;;;;;;363725;146;863825;-55
2022/02/26 01:38:14;;;;;;;12.24;7.71;;;;;;;;;;362945;146;857349;-54
2022/02/26 01:39:23;;;;;;;10.89;6.51;;;;;;;;;;364247;146;863765;-55
2022/02/26 01:40:20;;;;;;;12.40;7.04;;;;;;;;;;363588;146;864478;-55
2022/02/26 01:41:21;;;;;;;13.79;7.34;;;;;;;;;;364523;146;863996;-54
2022/02/26 01:42:23;;;;;;;13.94;6.94;;;;;;;;;;364565;146;862327;-55
2022/02/26 01:43:24;;;;;;;11.08;5.39;;;;;;;;;;363885;146;863921;-54
2022/02/26 01:44:26;;;;;;;11.14;6.62;;;;;;;;;;364578;146;863919;-54
2022/02/26 01:45:27;;;;;;;10.96;6.64;;;;;;;;;;364601;146;857394;-54
2022/02/26 01:46:29;;;;;;;14.64;7.60;;;;;;;;;;364130;146;864477;-55
2022/02/26 01:47:30;;;;;;;11.48;7.02;;;;;;;;;;364415;146;856405;-54
2022/02/26 01:48:32;;;;;;;11.02;6.54;;;;;;;;;;364302;146;856800;-53
2022/02/26 01:49:34;;;;;;;11.33;7.47;;;;;;;;;;364473;146;857245;-55
2022/02/26 01:50:36;;;;;;;10.62;6.76;;;;;;;;;;363454;146;856488;-55
2022/02/26 01:51:37;;;;;;;10.79;5.74;;;;;;;;;;364888;146;857350;-54
2022/02/26 01:52:39;;;;;;;12.36;7.04;;;;;;;;;;364676;146;857528;-55
2022/02/26 01:53:40;;;;;;;12.09;6.66;;;;;;;;;;363506;146;856454;-55
2022/02/26 01:54:42;;;;;;;12.85;6.64;;;;;;;;;;363426;146;864421;-55
2022/02/26 01:55:43;;;;;;;11.69;7.41;;;;;;;;;;364885;146;857355;-55
2022/02/26 01:56:46;;;;;;;9.35;6.16;;;;;;;;;;364344;146;863786;-55
2022/02/26 01:57:47;;;;;;;9.89;6.15;;;;;;;;;;364319;146;856295;-55
2022/02/26 01:58:49;;;;;;;9.99;6.05;;;;;;;;;;364767;146;856661;-54
2022/02/26 01:59:50;;;;;;;13.64;6.92;;;;;;;;;;364377;146;856222;-54
2022/02/26 02:00:52;;;;;;;11.28;6.71;;;;;;;;;;363805;146;856323;-55
2022/02/26 02:01:53;;;;;;;10.89;6.35;;;;;;;;;;364240;146;856350;-54
2022/02/26 02:02:57;;;;;;;10.11;5.72;;;;;;;;;;364393;146;858183;-55
2022/02/26 02:03:58;;;;;;;11.69;6.31;;;;;;;;;;364477;146;863860;-55
2022/02/26 02:05:00;;;;;;;12.91;6.84;;;;;;;;;;363900;146;856202;-55
2022/02/26 02:06:03;;;;;;;10.37;6.10;;;;;;;;;;364521;146;856189;-55
2022/02/26 02:07:04;;;;;;;12.28;6.29;;;;;;;;;;364382;146;856689;-55
2022/02/26 02:08:06;;;;;;;11.33;6.66;;;;;;;;;;364777;146;863864;-55
2022/02/26 02:09:07;;;;;;;13.00;6.84;;;;;;;;;;356730;149;856293;-55
2022/02/26 02:10:09;;;;;;;12.89;7.01;;;;;;;;;;357731;150;862335;-55
2022/02/26 02:11:11;;;;;;;9.20;5.86;;;;;;;;;;349977;152;863848;-54
2022/02/26 02:12:12;;;;;;;11.81;5.99;;;;;;;;;;351100;152;856175;-55
2022/02/26 02:13:14;;;;;;;8.46;5.01;;;;;;;;;;350426;150;858078;-55
2022/02/26 02:14:15;;;;;;;9.11;5.56;;;;;;;;;;350734;151;864003;-55
2022/02/26 02:15:19;;;;;;;10.96;6.75;;;;;;;;;;350333;153;856800;-54
2022/02/26 02:16:20;;;;;;;11.19;6.41;;;;;;;;;;350690;151;856747;-54
2022/02/26 02:17:23;;;;;;;10.70;6.12;;;;;;;;;;353846;151;863760;-55
2022/02/26 02:18:24;;;;;;;11.33;6.44;;;;;;;;;;350281;151;861818;-54
2022/02/26 02:19:26;;;;;;;10.21;6.27;;;;;;;;;;352924;151;857247;-54
2022/02/26 02:20:28;;;;;;;10.15;6.21;;;;;;;;;;350647;153;858526;-55
2022/02/26 02:21:30;;;;;;;11.78;6.49;;;;;;;;;;351219;151;856300;-54
2022/02/26 02:22:31;;;;;;;9.47;5.81;;;;;;;;;;350384;152;857744;-55
2022/02/26 02:23:33;;;;;;;9.39;5.74;;;;;;;;;;349503;152;864175;-55
2022/02/26 02:24:34;;;;;;;11.49;6.45;;;;;;;;;;352163;151;856341;-55
2022/02/26 02:25:36;;;;;;;7.60;4.56;;;;;;;;;;351351;150;863926;-55
2022/02/26 02:26:38;;;;;;;10.69;6.52;;;;;;;;;;351125;150;856347;-55
2022/02/26 02:27:40;;;;;;;10.48;5.95;;;;;;;;;;352270;151;864146;-54
2022/02/26 02:28:42;;;;;;;11.86;6.49;;;;;;;;;;348535;151;856416;-54
2022/02/26 02:29:43;;;;;;;11.31;6.12;;;;;;;;;;352050;151;859724;-55
2022/02/26 02:30:45;;;;;;;12.49;6.82;;;;;;;;;;354314;151;858248;-55
2022/02/26 02:31:46;;;;;;;12.54;6.32;;;;;;;;;;348008;150;864242;-54
2022/02/26 02:32:48;;;;;;;8.50;5.51;;;;;;;;;;355781;149;864572;-54
2022/02/26 02:33:50;;;;;;;9.44;6.23;;;;;;;;;;356279;149;857186;-55
2022/02/26 02:34:51;;;;;;;10.16;6.04;;;;;;;;;;356851;149;858306;-55
2022/02/26 02:35:53;;;;;;;8.91;5.57;;;;;;;;;;355281;149;864399;-55
2022/02/26 02:36:54;;;;;;;9.46;6.09;;;;;;;;;;356496;149;860766;-55
2022/02/26 02:37:56;;;;;;;11.49;6.19;;;;;;;;;;357125;149;856582;-55
2022/02/26 02:38:58;;;;;;;11.07;6.21;;;;;;;;;;356943;149;863970;-55
2022/02/26 02:39:59;;;;;;;10.45;6.08;;;;;;;;;;356452;149;856888;-54
2022/02/26 02:41:01;;;;;;;9.16;6.22;;;;;;;;;;347279;150;856528;-55
2022/02/26 02:42:03;;;;;;;9.85;6.21;;;;;;;;;;355983;149;864511;-54
2022/02/26 02:43:05;;;;;;;8.80;5.69;;;;;;;;;;349873;152;864162;-55
2022/02/26 02:44:07;;;;;;;8.94;5.47;;;;;;;;;;354943;150;856415;-54
2022/02/26 02:45:08;;;;;;;9.69;6.09;;;;;;;;;;355124;150;856578;-54
2022/02/26 02:46:10;;;;;;;11.76;5.95;;;;;;;;;;351383;151;857596;-55
2022/02/26 02:47:12;;;;;;;9.19;6.12;;;;;;;;;;350947;152;864114;-54
2022/02/26 02:48:15;;;;;;;8.73;5.94;;;;;;;;;;351264;152;856332;-54
2022/02/26 02:49:17;;;;;;;11.08;6.44;;;;;;;;;;354670;150;859028;-54
2022/02/26 02:50:20;;;;;;;11.04;5.86;;;;;;;;;;349723;151;856446;-54
2022/02/26 02:51:21;;;;;;;10.46;6.06;;;;;;;;;;349998;152;856504;-55
2022/02/26 02:52:23;;;;;;;9.78;5.89;;;;;;;;;;352731;151;856344;-54
2022/02/26 02:53:24;;;;;;;9.10;6.37;;;;;;;;;;354653;150;856257;-54
2022/02/26 02:54:26;;;;;;;11.00;7.01;;;;;;;;;;354432;149;856319;-54
2022/02/26 02:55:27;;;;;;;10.86;6.01;;;;;;;;;;351757;152;856389;-54
2022/02/26 02:56:29;;;;;;;8.77;5.89;;;;;;;;;;354561;149;864063;-54
2022/02/26 02:57:31;;;;;;;7.16;4.93;;;;;;;;;;347673;150;864038;-54
2022/02/26 03:14:34;;;;;;;9.43;5.45;;;;;;;2.21;72.80;100309.61;373394;142;868658;-53
2022/02/26 03:15:35;;;;;;;7.87;4.67;;;;;;;2.09;72.85;100317.73;366875;144;856139;-53
2022/02/26 03:16:37;;;;;;;9.06;4.80;;;;;;;2.06;72.94;100312.52;366610;144;857898;-54
2022/02/26 03:17:39;;;;;;;8.15;4.46;;;;;;;1.99;73.33;100314.02;366988;144;863888;-56
2022/02/26 03:18:40;;;;;;;10.59;4.48;;;;;;;2.00;73.37;100315.77;366410;144;863825;-54
2022/02/26 03:19:47;;;;;;;9.02;4.10;;;;;;;2.03;73.32;100318.41;367420;144;863839;-55
2022/02/26 03:20:46;;;;;;;6.59;4.10;;;;;;;2.09;73.28;100314.33;366857;144;863869;-54
2022/02/26 03:21:48;;;;;;;7.28;4.10;;;;;;;2.13;73.08;100321.27;367823;144;863612;-55
2022/02/26 03:22:49;;;;;;;7.84;4.16;;;;;;;2.22;72.87;100319.01;367340;144;856164;-54
2022/02/26 03:23:51;;;;;;;7.66;4.25;;;;;;;2.25;72.47;100319.11;367100;144;863647;-55
2022/02/26 03:24:53;;;;;;;7.14;4.01;;;;;;;2.33;72.43;100327.03;368456;144;863590;-54
2022/02/26 03:25:55;;;;;;;8.00;4.09;;;;;;;2.39;72.11;100322.11;367485;144;863551;-54
2022/02/26 03:26:57;;;;;;;8.40;4.21;;;;;;;2.48;71.91;100324.06;367461;144;863808;-54
2022/02/26 03:27:58;;;;;;;5.83;3.83;;;;;;;;;;367468;144;856563;-54
2022/02/26 03:29:00;;;;;;;6.18;3.97;;;;;;;;;;367728;144;856074;-54
2022/02/26 03:30:03;;;;;;;7.29;4.72;;;;;;;;;;367636;144;856165;-54
2022/02/26 03:31:04;;;;;;;11.10;5.12;;;;;;;;;;367044;144;863770;-54
2022/02/26 03:32:06;;;;;;;9.51;5.10;;;;;;;;;;366887;144;858344;-52
2022/02/26 03:33:08;;;;;;;8.94;4.87;;;;;;;;;;362989;144;856113;-53
2022/02/26 03:34:09;;;;;;;5.59;3.91;;;;;;;;;;362534;147;856336;-57
2022/02/26 03:35:11;;;;;;;7.77;5.49;;;;;;;;;;362856;146;856079;-56
2022/02/26 03:36:12;;;;;;;9.99;5.53;;;;;;;;;;362441;147;863615;-53
2022/02/26 03:37:14;;;;;;;9.44;5.01;;;;;;;;;;363200;146;856191;-54
2022/02/26 03:38:16;;;;;;;10.01;5.93;;;;;;;;;;362087;146;856089;-52
2022/02/26 03:39:18;;;;;;;8.99;5.61;;;;;;;;;;362158;146;863843;-54
2022/02/26 03:40:19;;;;;;;9.68;5.64;;;;;;;;;;363152;147;856112;-53
2022/02/26 03:41:21;;;;;;;8.78;5.67;;;;;;;;;;362158;147;863888;-54
2022/02/26 03:42:23;;;;;;;12.10;6.62;;;;;;;;;;361890;146;861574;-54
2022/02/26 03:43:24;;;;;;;11.66;6.74;;;;;;;;;;363109;147;863931;-53
2022/02/26 03:44:26;;;;;;;9.54;4.61;;;;;;;;;;362943;146;856627;-54
2022/02/26 03:45:27;;;;;;;8.73;5.77;;;;;;;;;;362230;146;863803;-54
2022/02/26 03:46:29;;;;;;;13.96;6.29;;;;;;;;;;362374;147;864703;-53
2022/02/26 03:47:31;;;;;;;12.87;6.76;;;;;;;;;;362918;147;864741;-54
2022/02/26 03:48:32;;;;;;;11.26;6.97;;;;;;;;;;363044;147;856524;-53
2022/02/26 03:49:34;;;;;;;11.24;7.05;;;;;;;;;;363044;146;858195;-54
2022/02/26 03:50:35;;;;;;;9.74;6.99;;;;;;;;;;362606;146;857448;-55
2022/02/26 03:51:37;;;;;;;12.61;6.66;;;;;;;;;;363333;147;857726;-55
2022/02/26 03:52:39;;;;;;;12.26;6.71;;;;;;;;;;362398;146;858186;-58
2022/02/26 03:53:40;;;;;;;10.80;6.90;;;;;;;;;;362816;146;862395;-55
2022/02/26 03:54:42;;;;;;;10.61;7.31;;;;;;;;;;363134;146;857241;-53
2022/02/26 03:55:44;;;;;;;12.39;7.23;;;;;;;;;;362849;147;856578;-53
2022/02/26 03:56:45;;;;;;;14.23;7.26;;;;;;;;;;362686;146;856844;-54
2022/02/26 03:57:47;;;;;;;12.90;6.86;;;;;;;;;;362912;146;856688;-53
2022/02/26 03:58:51;;;;;;;15.64;7.74;;;;;;;;;;362734;147;856584;-53
2022/02/26 03:59:52;;;;;;;11.41;7.39;;;;;;;;;;362608;146;856741;-54
2022/02/26 04:00:54;;;;;;;12.81;7.58;;;;;;;;;;362326;144;856617;-53
2022/02/26 04:01:55;;;;;;;11.06;6.71;;;;;;;;;;362552;147;864297;-54
2022/02/26 04:02:57;;;;;;;9.22;5.70;;;;;;;;;;362274;146;864451;-54
2022/02/26 04:03:59;;;;;;;12.44;7.05;;;;;;;;;;362207;147;857152;-53
2022/02/26 04:05:01;;;;;;;12.53;6.79;;;;;;;;;;362348;147;856925;-54
2022/02/26 04:06:02;;;;;;;13.14;7.30;;;;;;;;;;361976;147;856238;-54
2022/02/26 04:07:04;;;;;;;12.29;7.31;;;;;;;;;;362310;146;864018;-55
2022/02/26 04:08:05;;;;;;;13.39;7.54;;;;;;;;;;363223;147;863837;-55
2022/02/26 04:09:07;;;;;;;14.91;7.27;;;;;;;;;;363046;146;864416;-54
2022/02/26 04:10:09;;;;;;;10.65;6.94;;;;;;;;;;362684;147;856221;-55
2022/02/26 04:11:11;;;;;;;13.01;7.25;;;;;;;;;;362641;147;856708;-55
2022/02/26 04:12:12;;;;;;;14.19;7.79;;;;;;;;;;362747;147;856319;-54
2022/02/26 04:13:14;;;;;;;14.68;7.60;;;;;;;;;;362716;147;856781;-56
2022/02/26 04:14:15;;;;;;;16.51;8.63;;;;;;;;;;362341;146;862306;-54
2022/02/26 04:15:17;;;;;;;13.53;7.33;;;;;;;;;;362674;146;856628;-54
2022/02/26 04:16:19;;;;;;;13.17;7.56;;;;;;;;;;363516;147;856103;-54
2022/02/26 04:17:20;;;;;;;13.54;8.79;;;;;;;;;;362530;146;856160;-54
2022/02/26 04:18:22;;;;;;;12.24;8.00;;;;;;;;;;362322;146;864001;-52
2022/02/26 04:19:23;;;;;;;13.07;8.36;;;;;;;;;;363044;146;856820;-54
2022/02/26 04:20:25;;;;;;;12.47;7.66;;;;;;;;;;362947;147;856368;-54
2022/02/26 04:21:28;;;;;;;13.71;8.81;;;;;;;;;;362860;146;863861;-54
2022/02/26 04:22:30;;;;;;;13.53;8.05;;;;;;;;;;362676;147;863854;-54
2022/02/26 04:23:32;;;;;;;13.63;8.17;;;;;;;;;;362751;146;857196;-54
2022/02/26 04:24:33;;;;;;;14.58;8.19;;;;;;;;;;362303;146;864136;-52
2022/02/26 04:25:35;;;;;;;12.39;7.54;;;;;;;;;;362629;147;856864;-54
2022/02/26 04:26:36;;;;;;;16.69;8.45;;;;;;;;;;362816;147;856687;-54
2022/02/26 04:27:38;;;;;;;12.51;7.88;;;;;;;;;;362442;147;856964;-53
2022/02/26 04:28:40;;;;;;;17.04;8.63;;;;;;;;;;362479;146;856960;-55
2022/02/26 04:29:41;;;;;;;13.39;9.39;;;;;;;;;;362849;147;856332;-54
2022/02/26 04:30:43;;;;;;;14.01;7.86;;;;;;;;;;362048;147;856177;-53
2022/02/26 04:31:45;;;;;;;13.62;8.40;;;;;;;;;;362549;146;856173;-54
2022/02/26 04:32:46;;;;;;;15.64;8.76;;;;;;;;;;362553;147;856214;-54
2022/02/26 04:33:48;;;;;;;12.09;6.37;;;;;;;;;;362704;147;856580;-54
2022/02/26 04:34:50;;;;;;;15.37;8.61;;;;;;;;;;361971;146;863870;-54
2022/02/26 04:35:51;;;;;;;16.91;8.36;;;;;;;;;;362905;146;863979;-54
2022/02/26 04:36:53;;;;;;;13.44;8.74;;;;;;;;;;351138;152;863825;-55
2022/02/26 04:37:55;;;;;;;13.20;7.79;;;;;;;;;;362609;146;856372;-54
2022/02/26 04:38:56;;;;;;;13.64;7.96;;;;;;;;;;363135;146;856780;-53
2022/02/26 04:39:59;;;;;;;13.84;8.22;;;;;;;;;;362806;147;863830;-53
2022/02/26 04:41:01;;;;;;;13.25;8.25;;;;;;;;;;362181;147;856975;-53
2022/02/26 04:42:02;;;;;;;14.02;8.47;;;;;;;;;;362914;146;856134;-53
2022/02/26 04:43:04;;;;;;;14.65;8.99;;;;;;;;;;362347;146;856206;-53
2022/02/26 04:44:06;;;;;;;14.61;8.43;;;;;;;;;;362663;146;856314;-54
2022/02/26 04:45:08;;;;;;;14.39;9.06;;;;;;;;;;362788;147;857090;-54
2022/02/26 04:46:10;;;;;;;16.02;8.20;;;;;;;;;;362712;146;863856;-54
2022/02/26 04:47:12;;;;;;;12.34;7.91;;;;;;;;;;362753;147;863863;-54
2022/02/26 04:48:13;;;;;;;15.15;8.70;;;;;;;;;;362953;147;856192;-54
2022/02/26 04:49:15;;;;;;;14.50;8.60;;;;;;;;;;362325;146;863789;-54
2022/02/26 04:50:17;;;;;;;14.77;9.44;;;;;;;;;;351028;151;864608;-53
2022/02/26 04:51:18;;;;;;;14.69;8.35;;;;;;;;;;362636;147;856444;-54
2022/02/26 04:52:20;;;;;;;16.39;9.29;;;;;;;;;;362520;146;863828;-54
2022/02/26 04:53:22;;;;;;;16.94;10.53;;;;;;;;;;361952;146;856422;-54
2022/02/26 04:54:23;;;;;;;12.89;8.42;;;;;;;;;;362669;147;856144;-52
2022/02/26 04:55:25;;;;;;;16.09;8.88;;;;;;;;;;362847;146;863818;-54
2022/02/26 04:56:26;;;;;;;20.24;10.73;;;;;;;;;;362591;146;856278;-62
2022/02/26 05:14:37;;;;;;;16.02;8.94;;;;;;;1.29;77.71;100502.11;368935;142;881367;-54
2022/02/26 05:15:38;;;;;;;13.68;9.73;;;;;;;1.22;77.61;100510.34;362365;144;856870;-54
2022/02/26 05:16:40;;;;;;;13.53;7.94;;;;;;;1.22;77.61;100512.89;361323;144;857024;-54
2022/02/26 05:17:42;;;;;;;12.70;8.05;;;;;;;1.24;77.55;100508.72;361874;145;864194;-56
2022/02/26 05:18:44;;;;;;;12.21;7.25;;;;;;;1.28;77.55;100511.47;362375;145;863909;-55
2022/02/26 05:19:45;;;;;;;12.52;7.32;;;;;;;1.33;77.29;100513.33;361588;146;863853;-55
2022/02/26 05:20:47;;;;;;;13.54;7.79;;;;;;;1.41;77.16;100499.17;361558;145;856174;-54
2022/02/26 05:21:51;;;;;;;13.22;6.98;;;;;;;1.50;76.94;100507.18;361745;144;864001;-54
2022/02/26 05:22:53;;;;;;;11.85;6.99;;;;;;;1.62;76.52;100511.00;361974;144;856701;-55
2022/02/26 05:23:55;;;;;;;10.76;7.10;;;;;;;1.66;76.02;100512.86;361695;144;864081;-54
2022/02/26 05:24:56;;;;;;;12.36;7.31;;;;;;;1.73;75.85;100509.72;361413;144;864527;-53
2022/02/26 05:25:58;;;;;;;16.68;7.45;;;;;;;1.79;75.61;100512.50;361938;144;863788;-55
2022/02/26 05:27:00;;;;;;;11.68;6.82;;;;;;;1.85;75.30;100509.32;361924;145;864074;-54
2022/02/26 05:28:02;;;;;;;10.10;6.36;;;;;;;1.95;75.18;100508.84;361413;144;863909;-54
2022/02/26 05:29:04;;;;;;;10.97;6.99;;;;;;;2.01;74.76;100513.28;362102;144;864085;-55
2022/02/26 05:30:06;;;;;;;11.00;6.51;;;;;;;1.99;74.30;100513.24;361521;144;857275;-55
2022/02/26 05:31:08;;;;;;;12.07;7.43;;;;;;;2.03;74.28;100516.76;361493;144;856142;-55
2022/02/26 05:32:10;;;;;;;11.86;7.58;;;;;;;2.06;74.12;100521.13;361846;144;863932;-54
2022/02/26 05:33:12;;;;;;;11.19;7.21;;;;;;;2.11;74.19;100519.61;356017;147;864067;-54
2022/02/26 05:34:13;;;;;;;9.17;6.73;;;;;;;;;;355371;147;863970;-55
2022/02/26 05:35:15;;;;;;;11.84;7.47;;;;;;;;;;355964;147;863862;-57
2022/02/26 05:36:18;;;;;;;13.06;8.02;;;;;;;;;;356625;147;856529;-54
2022/02/26 05:37:19;;;;;;;16.30;7.71;;;;;;;;;;355207;147;856159;-55
2022/02/26 05:38:21;;;;;;;12.97;8.56;;;;;;;;;;355777;147;856662;-57
2022/02/26 05:39:23;;;;;;;12.12;8.14;;;;;;;;;;355510;147;857072;-57
2022/02/26 05:40:24;;;;;;;13.26;8.34;;;;;;;;;;356304;147;856619;-56
2022/02/26 05:41:26;;;;;;;13.11;8.86;;;;;;;;;;355672;147;863912;-54
2022/02/26 05:42:27;;;;;;;19.59;9.96;;;;;;;;;;357955;147;856502;-55
2022/02/26 05:43:29;;;;;;;16.14;9.21;;;;;;;;;;355745;147;864011;-54
2022/02/26 05:44:30;;;;;;;13.67;9.14;;;;;;;;;;356209;147;863988;-54
2022/02/26 05:45:32;;;;;;;17.44;9.62;;;;;;;;;;355500;147;856366;-54
2022/02/26 05:46:34;;;;;;;15.17;9.93;;;;;;;;;;355479;147;864107;-56
2022/02/26 05:47:35;;;;;;;17.77;10.02;;;;;;;;;;356456;147;856321;-55
2022/02/26 05:48:37;;;;;;;14.92;10.19;;;;;;;;;;355351;147;864710;-55
2022/02/26 05:49:39;;;;;;;15.96;10.19;;;;;;;;;;356077;147;857445;-55
2022/02/26 05:50:40;;;;;;;18.05;10.47;;;;;;;;;;355917;147;864276;-55
2022/02/26 05:51:42;;;;;;;16.96;10.18;;;;;;;;;;356243;147;856663;-55
2022/02/26 05:52:44;;;;;;;16.08;9.90;;;;;;;;;;355368;147;859118;-55
2022/02/26 05:53:45;;;;;;;18.24;10.52;;;;;;;;;;355628;147;859126;-55
2022/02/26 05:54:47;;;;;;;15.74;10.29;;;;;;;;;;355421;147;856993;-54
2022/02/26 05:55:49;;;;;;;17.25;10.82;;;;;;;;;;355194;147;863969;-56
2022/02/26 05:56:51;;;;;;;15.86;10.25;;;;;;;;;;355540;147;856650;-56
2022/02/26 05:57:52;;;;;;;17.87;10.99;;;;;;;;;;355523;147;863870;-56
2022/02/26 05:58:54;;;;;;;16.57;10.37;;;;;;;;;;356474;147;856125;-56
2022/02/26 05:59:55;;;;;;;20.73;11.12;;;;;;;;;;356283;147;857700;-56
2022/02/26 06:00:57;;;;;;;17.43;10.12;;;;;;;;;;355417;147;856532;-55
2022/02/26 06:01:59;;;;;;;14.14;8.66;;;;;;;;;;355510;147;856064;-54
2022/02/26 06:03:00;;;;;;;15.56;9.60;;;;;;;;;;355428;147;864754;-55
2022/02/26 06:04:02;;;;;;;17.41;10.24;;;;;;;;;;355491;148;864480;-57
2022/02/26 06:05:04;;;;;;;14.76;10.03;;;;;;;;;;355610;150;864017;-57
2022/02/26 06:06:06;;;;;;;18.31;11.17;;;;;;;;;;355844;147;856070;-59
2022/02/26 06:07:07;;;;;;;17.24;10.76;;;;;;;;;;356008;147;857092;-54
2022/02/26 06:08:09;;;;;;;19.72;10.96;;;;;;;;;;356299;147;856906;-54
2022/02/26 06:09:10;;;;;;;17.73;10.13;;;;;;;;;;355833;147;856553;-56
2022/02/26 06:10:12;;;;;;;18.57;9.95;;;;;;;;;;355966;147;856276;-56
2022/02/26 06:11:14;;;;;;;18.45;10.66;;;;;;;;;;355318;147;856437;-56
2022/02/26 06:12:15;;;;;;;21.18;10.11;;;;;;;;;;355958;147;856663;-53
2022/02/26 06:13:17;;;;;;;17.57;9.67;;;;;;;;;;356233;147;856158;-52
2022/02/26 06:14:19;;;;;;;19.98;10.19;;;;;;;;;;356262;147;864420;-53
2022/02/26 06:15:20;;;;;;;23.42;10.96;;;;;;;;;;356908;147;856977;-52
2022/02/26 06:16:22;;;;;;;18.61;10.22;;;;;;;;;;356277;147;857539;-53
2022/02/26 06:17:24;;;;;;;15.59;10.48;;;;;;;;;;356206;147;856506;-52
2022/02/26 06:18:26;;;;;;;15.34;10.06;;;;;;;;;;356478;147;856916;-55
2022/02/26 06:19:28;;;;;;;15.67;10.21;;;;;;;;;;355734;147;856281;-56
2022/02/26 06:20:30;;;;;;;16.04;10.16;;;;;;;;;;356326;147;856874;-55
2022/02/26 06:21:31;;;;;;;15.84;8.92;;;;;;;;;;355977;147;856586;-55
2022/02/26 06:22:33;;;;;;;18.19;10.35;;;;;;;;;;356687;147;857248;-56
2022/02/26 06:23:34;;;;;;;16.40;9.70;;;;;;;;;;356035;147;863965;-54
2022/02/26 06:24:36;;;;;;;18.26;9.86;;;;;;;;;;357004;147;856809;-55